Time;durP1;ratioP1;P1;durP2;ratioP2;P2;SDS_P1;SDS_P2;PMS_P1;PMS_P2;Temp;Humidity;BMP_temperature;BMP_pressure;BME280_temperature;BME280_humidity;BME280_pressure;Samples;Min_cycle;Max_cycle;Signal;HPM_P1;HPM_P2
2022/01/13 00:01:46;;;;;;;2.70;2.55;;;-0.30;99.90;;;;;;5060078;28;20264;-64
2022/01/13 00:04:15;;;;;;;2.60;2.50;;;-0.30;99.90;;;;;;5062235;28;20581;-65
2022/01/13 00:06:43;;;;;;;2.58;2.47;;;-0.30;99.90;;;;;;5067346;28;20200;-63
2022/01/13 00:09:10;;;;;;;2.70;2.50;;;-0.40;99.90;;;;;;5070915;28;20238;-64
2022/01/13 00:11:38;;;;;;;2.50;2.40;;;-0.40;99.90;;;;;;5071037;28;20230;-63
2022/01/13 00:17:11;;;;;;;2.13;2.03;;;-0.40;99.90;;;;;;5069532;28;20336;-62
2022/01/13 00:20:19;;;;;;;2.33;2.22;;;-0.50;99.90;;;;;;5065746;28;20219;-64
2022/01/13 00:23:39;;;;;;;2.20;2.10;;;-0.50;99.90;;;;;;5064736;28;20203;-64
2022/01/13 00:25:37;;;;;;;2.22;2.13;;;-0.60;99.90;;;;;;5053934;28;20199;-63
2022/01/13 00:28:12;;;;;;;2.13;2.03;;;-0.60;99.90;;;;;;5057860;28;20219;-64
2022/01/13 00:30:39;;;;;;;1.90;1.80;;;-0.70;99.90;;;;;;5056457;28;20207;-63
2022/01/13 00:33:08;;;;;;;2.03;1.93;;;-0.70;99.90;;;;;;5065599;28;20311;-64
2022/01/13 00:35:36;;;;;;;2.00;1.90;;;-0.70;99.90;;;;;;5065337;28;20207;-63
2022/01/13 00:38:03;;;;;;;2.00;1.90;;;-0.70;99.90;;;;;;5063152;28;20579;-63
2022/01/13 00:40:30;;;;;;;1.90;1.80;;;-0.80;99.90;;;;;;5054599;28;20310;-63
2022/01/13 00:42:56;;;;;;;2.03;1.92;;;-0.80;99.90;;;;;;5060155;28;20291;-63
2022/01/13 00:45:23;;;;;;;2.03;1.92;;;-0.90;99.90;;;;;;5071717;28;20291;-63
2022/01/13 00:47:50;;;;;;;1.80;1.70;;;-0.90;99.90;;;;;;5072718;28;20223;-63
2022/01/13 00:50:18;;;;;;;2.00;1.90;;;-0.90;99.90;;;;;;5070023;28;20232;-64
2022/01/13 00:52:46;;;;;;;1.85;1.75;;;-0.90;99.90;;;;;;5074588;28;20207;-63
2022/01/13 00:55:20;;;;;;;1.65;1.60;;;-0.90;99.90;;;;;;5071606;28;20334;-63
2022/01/13 00:57:47;;;;;;;1.77;1.67;;;-0.90;99.90;;;;;;5076362;28;20199;-63
2022/01/13 01:00:14;;;;;;;1.50;1.50;;;-0.90;99.90;;;;;;5075520;28;20227;-64
2022/01/13 01:02:41;;;;;;;1.73;1.63;;;-0.90;99.90;;;;;;5075657;28;20207;-63
2022/01/13 01:05:09;;;;;;;1.90;1.80;;;-0.90;99.90;;;;;;5071972;28;20227;-63
2022/01/13 01:07:36;;;;;;;1.67;1.58;;;-0.90;99.90;;;;;;5077457;28;20238;-64
2022/01/13 01:10:05;;;;;;;2.08;1.90;;;-0.90;99.90;;;;;;5074143;28;20208;-64
2022/01/13 01:12:34;;;;;;;1.80;1.70;;;-0.90;99.90;;;;;;5066542;28;20261;-62
2022/01/13 01:15:01;;;;;;;1.83;1.73;;;-0.80;99.90;;;;;;5066333;28;20250;-63
2022/01/13 01:17:29;;;;;;;1.90;1.80;;;-0.80;99.90;;;;;;5069257;28;20206;-64
2022/01/13 01:19:56;;;;;;;2.00;1.90;;;-0.90;99.90;;;;;;5070311;28;20288;-62
2022/01/13 01:22:40;;;;;;;1.80;1.70;;;-0.90;99.90;;;;;;5067881;28;20207;-65
2022/01/13 01:25:39;;;;;;;1.67;1.60;;;-1.00;99.90;;;;;;5067623;28;20247;-63
2022/01/13 01:28:13;;;;;;;1.65;1.55;;;-1.00;99.90;;;;;;5068302;28;20203;-63
2022/01/13 01:30:43;;;;;;;1.80;1.70;;;-0.90;99.90;;;;;;5070542;28;20197;-63
2022/01/13 01:33:14;;;;;;;1.67;1.60;;;-0.90;99.90;;;;;;5065138;28;20208;-63
2022/01/13 01:35:41;;;;;;;1.85;1.75;;;-0.80;99.90;;;;;;5066969;28;20234;-63
2022/01/13 01:38:09;;;;;;;1.42;1.42;;;-0.80;99.90;;;;;;5065611;28;20293;-64
2022/01/13 01:40:37;;;;;;;1.60;1.50;;;-0.80;99.90;;;;;;5068332;28;20232;-63
2022/01/13 01:43:04;;;;;;;1.43;1.43;;;-0.80;99.90;;;;;;5068189;28;20286;-63
2022/01/13 01:45:34;;;;;;;1.77;1.67;;;-0.80;99.90;;;;;;5067969;28;20633;-64
2022/01/13 01:48:03;;;;;;;1.50;1.50;;;-0.80;99.90;;;;;;5073534;28;20207;-63
2022/01/13 01:50:35;;;;;;;1.90;1.80;;;-0.80;99.90;;;;;;5077565;28;20203;-63
2022/01/13 01:53:03;;;;;;;2.00;1.90;;;-0.90;99.90;;;;;;5066975;28;20298;-63
2022/01/13 01:55:30;;;;;;;1.83;1.73;;;-0.90;99.90;;;;;;5069932;28;20290;-63
2022/01/13 01:57:58;;;;;;;1.80;1.70;;;-0.90;99.90;;;;;;5069133;28;20544;-63
2022/01/13 02:00:27;;;;;;;1.80;1.70;;;-1.00;99.90;;;;;;5063929;28;20302;-63
2022/01/13 02:02:55;;;;;;;1.80;1.70;;;-1.00;99.90;;;;;;5068556;28;20195;-63
2022/01/13 02:05:22;;;;;;;1.75;1.65;;;-1.00;99.90;;;;;;5059874;28;20200;-63
2022/01/13 02:07:49;;;;;;;1.80;1.70;;;-1.10;99.90;;;;;;5053843;28;20232;-62
2022/01/13 02:10:17;;;;;;;2.00;1.90;;;-1.20;99.90;;;;;;5054058;28;20279;-64
2022/01/13 02:12:48;;;;;;;1.73;1.67;;;-1.20;99.90;;;;;;5053661;28;20210;-64
2022/01/13 02:15:30;;;;;;;1.90;1.80;;;-1.20;99.90;;;;;;5056819;28;20229;-64
2022/01/13 02:17:58;;;;;;;2.10;2.00;;;-1.20;99.90;;;;;;5059053;28;20570;-64
2022/01/13 02:20:41;;;;;;;1.70;1.60;;;-1.30;99.90;;;;;;5056210;28;20308;-64
2022/01/13 02:23:08;;;;;;;1.60;1.60;;;-1.20;99.90;;;;;;5075784;28;20202;-63
2022/01/13 02:25:35;;;;;;;1.83;1.73;;;-1.30;99.90;;;;;;5075064;28;20294;-62
2022/01/13 02:28:02;;;;;;;1.48;1.48;;;-1.40;99.90;;;;;;5075237;28;20271;-63
2022/01/13 02:30:29;;;;;;;1.60;1.50;;;-1.40;99.90;;;;;;5076187;28;20294;-63
2022/01/13 02:32:55;;;;;;;1.40;1.40;;;-1.30;99.90;;;;;;5076903;28;20771;-64
2022/01/13 02:35:25;;;;;;;1.50;1.50;;;-1.40;99.90;;;;;;5077890;28;20669;-65
2022/01/13 02:37:53;;;;;;;1.37;1.37;;;-1.40;99.90;;;;;;5074446;28;20274;-63
2022/01/13 02:40:20;;;;;;;1.80;1.70;;;-1.40;99.90;;;;;;5075065;28;20269;-62
2022/01/13 02:42:47;;;;;;;1.65;1.55;;;-1.30;99.90;;;;;;5076460;28;20204;-63
2022/01/13 02:45:19;;;;;;;1.70;1.60;;;-1.30;99.90;;;;;;5077074;28;20351;-62
2022/01/13 02:48:12;;;;;;;1.33;1.33;;;-1.30;99.90;;;;;;5076998;28;20613;-64
2022/01/13 02:50:40;;;;;;;1.40;1.40;;;-1.30;99.90;;;;;;5076749;28;20195;-62
2022/01/13 02:53:09;;;;;;;1.60;1.50;;;-1.20;99.90;;;;;;5075242;28;20203;-64
2022/01/13 02:55:36;;;;;;;1.30;1.30;;;-1.10;99.90;;;;;;5075227;28;20241;-64
2022/01/13 02:58:04;;;;;;;1.30;1.30;;;-1.10;99.90;;;;;;5077284;28;20673;-62
2022/01/13 03:00:31;;;;;;;1.47;1.47;;;-1.00;99.90;;;;;;5075684;28;20250;-62
2022/01/13 03:02:58;;;;;;;1.45;1.42;;;-1.00;99.90;;;;;;5077138;28;20215;-64
2022/01/13 03:05:25;;;;;;;1.25;1.25;;;-0.90;99.90;;;;;;5080318;28;20202;-64
2022/01/13 03:07:53;;;;;;;1.20;1.20;;;-0.90;99.90;;;;;;5081876;28;20249;-62
2022/01/13 03:10:22;;;;;;;1.30;1.30;;;-0.80;99.90;;;;;;5088580;28;20560;-62
2022/01/13 03:12:49;;;;;;;1.53;1.47;;;-0.90;99.90;;;;;;5085773;28;20206;-61
2022/01/13 03:15:16;;;;;;;1.30;1.30;;;-0.90;99.90;;;;;;5079219;28;20255;-61
2022/01/13 03:17:43;;;;;;;1.30;1.30;;;-0.90;99.90;;;;;;5074296;28;20211;-64
2022/01/13 03:20:11;;;;;;;1.30;1.30;;;-0.90;99.90;;;;;;5073590;28;20214;-63
2022/01/13 03:22:38;;;;;;;1.20;1.20;;;-0.90;99.90;;;;;;5073369;28;20207;-63
2022/01/13 03:25:06;;;;;;;1.20;1.20;;;-0.80;99.90;;;;;;5073956;28;20258;-64
2022/01/13 03:27:35;;;;;;;1.10;1.10;;;-0.70;99.90;;;;;;5073896;28;20246;-63
2022/01/13 03:30:06;;;;;;;1.23;1.23;;;-0.60;99.90;;;;;;5073638;28;20211;-63
2022/01/13 03:32:34;;;;;;;1.50;1.40;;;-0.60;99.90;;;;;;5073238;28;20217;-63
2022/01/13 03:35:01;;;;;;;1.10;1.10;;;-0.60;99.90;;;;;;5073140;28;20231;-63
2022/01/13 03:37:29;;;;;;;1.30;1.30;;;-0.60;99.90;;;;;;5074026;28;20291;-63
2022/01/13 03:39:56;;;;;;;1.15;1.15;;;-0.50;99.90;;;;;;5073358;28;20245;-64
2022/01/13 03:42:23;;;;;;;1.05;1.05;;;-0.50;99.90;;;;;;5073270;28;20231;-63
2022/01/13 03:44:51;;;;;;;1.10;1.10;;;-0.50;99.90;;;;;;5072658;28;20810;-64
2022/01/13 03:47:18;;;;;;;1.30;1.30;;;-0.50;99.90;;;;;;5073133;28;20203;-63
2022/01/13 03:49:45;;;;;;;1.30;1.30;;;-0.50;99.90;;;;;;5072727;28;20210;-63
2022/01/13 03:52:51;;;;;;;1.30;1.30;;;-0.50;99.90;;;;;;5072944;28;20241;-64
2022/01/13 03:55:54;;;;;;;1.52;1.50;;;-0.50;99.90;;;;;;5073169;28;20443;-65
2022/01/13 03:59:02;;;;;;;1.70;1.60;;;-0.60;99.90;;;;;;5072934;28;20213;-64
2022/01/13 04:02:02;;;;;;;1.50;1.50;;;-0.70;99.90;;;;;;5073546;28;20227;-62
2022/01/13 04:04:29;;;;;;;1.55;1.55;;;-0.60;99.90;;;;;;5074379;28;20234;-63
2022/01/13 04:07:11;;;;;;;2.00;1.90;;;-0.60;99.90;;;;;;5078366;28;20243;-65
2022/01/13 04:10:27;;;;;;;1.98;1.88;;;-0.70;99.90;;;;;;5080598;28;20238;-64
2022/01/13 04:12:55;;;;;;;2.05;1.95;;;-0.70;99.90;;;;;;5082380;28;20705;-63
2022/01/13 04:15:27;;;;;;;1.90;1.80;;;-0.70;99.90;;;;;;5084246;28;20210;-63
2022/01/13 04:17:56;;;;;;;1.85;1.75;;;-0.70;99.90;;;;;;5076576;28;20630;-63
2022/01/13 04:20:23;;;;;;;1.33;1.33;;;-0.70;99.90;;;;;;5079907;28;20294;-63
2022/01/13 04:22:51;;;;;;;1.50;1.50;;;-0.80;99.90;;;;;;5072842;28;20230;-63
2022/01/13 04:25:21;;;;;;;1.48;1.48;;;-0.80;99.90;;;;;;5072075;28;20706;-64
2022/01/13 04:27:49;;;;;;;1.63;1.53;;;-0.80;99.90;;;;;;5072040;28;20219;-64
2022/01/13 04:33:03;;;;;;;1.30;1.30;;;-0.80;99.90;;;;;;5074454;28;20182;-63
2022/01/13 04:35:30;;;;;;;1.50;1.40;;;-0.80;99.90;;;;;;5079223;28;20278;-64
2022/01/13 04:37:57;;;;;;;1.20;1.20;;;-0.80;99.90;;;;;;5079497;28;20266;-63
2022/01/13 04:40:24;;;;;;;1.60;1.50;;;-0.80;99.90;;;;;;5075769;28;20553;-63
2022/01/13 04:42:54;;;;;;;1.90;1.80;;;-0.80;99.90;;;;;;5072224;28;20311;-63
2022/01/13 04:45:23;;;;;;;1.73;1.63;;;-0.80;99.90;;;;;;5074653;28;20279;-62
2022/01/13 04:47:52;;;;;;;2.05;1.95;;;-0.80;99.90;;;;;;5076536;28;20608;-63
2022/01/13 04:50:21;;;;;;;1.90;1.80;;;-0.80;99.90;;;;;;5072366;28;20642;-64
2022/01/13 04:52:48;;;;;;;1.80;1.70;;;-0.90;99.90;;;;;;5071644;28;20195;-62
2022/01/13 04:55:21;;;;;;;1.33;1.33;;;-1.00;99.90;;;;;;5072051;28;20284;-62
2022/01/13 04:57:48;;;;;;;1.77;1.67;;;-0.90;99.90;;;;;;5072417;28;20196;-62
2022/01/13 05:00:16;;;;;;;1.90;1.80;;;-0.80;99.90;;;;;;5072047;28;20677;-63
2022/01/13 05:02:43;;;;;;;1.80;1.70;;;-0.90;99.90;;;;;;5071449;28;20310;-63
2022/01/13 05:05:11;;;;;;;1.90;1.80;;;-0.90;99.90;;;;;;5072228;28;20249;-63
2022/01/13 05:07:39;;;;;;;1.53;1.43;;;-1.00;99.90;;;;;;5071361;28;20681;-63
2022/01/13 05:10:07;;;;;;;1.70;1.60;;;-1.00;99.90;;;;;;5071492;28;20707;-63
2022/01/13 05:12:39;;;;;;;1.50;1.50;;;-1.10;99.90;;;;;;5071049;28;20290;-63
2022/01/13 05:15:08;;;;;;;1.40;1.40;;;-1.10;99.90;;;;;;5071993;28;20231;-64
2022/01/13 05:20:19;;;;;;;1.40;1.33;;;-1.20;99.90;;;;;;5062474;28;20195;-64
2022/01/13 05:22:48;;;;;;;1.33;1.33;;;-1.10;99.90;;;;;;5070952;28;20339;-64
2022/01/13 05:25:15;;;;;;;1.30;1.30;;;-1.10;99.90;;;;;;5071263;28;20219;-63
2022/01/13 05:27:43;;;;;;;1.48;1.48;;;-1.10;99.90;;;;;;5071429;28;20217;-63
2022/01/13 05:30:11;;;;;;;1.80;1.70;;;-1.20;99.90;;;;;;5071450;28;20627;-63
2022/01/13 05:32:38;;;;;;;1.53;1.50;;;-1.20;99.90;;;;;;5071185;28;20204;-63
2022/01/13 05:35:05;;;;;;;1.70;1.60;;;-1.30;99.90;;;;;;5070934;28;20234;-64
2022/01/13 05:37:32;;;;;;;1.45;1.45;;;-1.20;99.90;;;;;;5071645;28;20209;-63
2022/01/13 05:40:01;;;;;;;1.55;1.45;;;-1.20;99.90;;;;;;5070446;28;20232;-63
2022/01/13 05:42:27;;;;;;;1.38;1.30;;;-1.20;99.90;;;;;;5071276;28;20254;-62
2022/01/13 05:44:56;;;;;;;1.58;1.48;;;-1.10;99.90;;;;;;5071191;28;20223;-63
2022/01/13 05:47:23;;;;;;;1.33;1.33;;;-1.20;99.90;;;;;;5071136;28;20214;-63
2022/01/13 05:49:50;;;;;;;1.20;1.20;;;-1.20;99.90;;;;;;5071607;28;20294;-63
2022/01/13 05:52:17;;;;;;;1.88;1.77;;;-1.30;99.90;;;;;;5071349;28;20706;-64
2022/01/13 05:54:43;;;;;;;1.90;1.80;;;-1.30;99.90;;;;;;5071885;28;20305;-63
2022/01/13 05:57:12;;;;;;;1.95;1.85;;;-1.30;99.90;;;;;;5072517;28;20286;-63
2022/01/13 05:59:39;;;;;;;1.70;1.60;;;-1.40;99.90;;;;;;5073177;28;20240;-64
2022/01/13 06:02:06;;;;;;;2.03;1.92;;;-1.40;99.90;;;;;;5071494;28;20310;-63
2022/01/13 06:04:33;;;;;;;2.00;1.90;;;-1.40;99.90;;;;;;5072562;28;20318;-64
2022/01/13 06:07:00;;;;;;;1.80;1.70;;;-1.50;99.90;;;;;;5070980;28;20233;-64
2022/01/13 06:09:28;;;;;;;2.00;1.90;;;-1.50;99.90;;;;;;5071278;28;20205;-64
2022/01/13 06:11:58;;;;;;;1.60;1.60;;;-1.60;99.90;;;;;;5062779;28;20273;-64
2022/01/13 06:14:27;;;;;;;1.70;1.60;;;-1.60;99.90;;;;;;5070476;28;20216;-63
2022/01/13 06:16:54;;;;;;;1.65;1.60;;;-1.50;99.90;;;;;;5071123;28;20294;-62
2022/01/13 06:19:21;;;;;;;1.80;1.70;;;-1.50;99.90;;;;;;5071271;28;20221;-62
2022/01/13 06:21:49;;;;;;;1.85;1.75;;;-1.50;99.90;;;;;;5071237;28;20215;-61
2022/01/13 06:24:16;;;;;;;1.63;1.60;;;-1.50;99.90;;;;;;5071081;28;20771;-62
2022/01/13 06:26:43;;;;;;;2.10;2.00;;;-1.40;99.90;;;;;;5074049;28;20282;-64
2022/01/13 06:29:10;;;;;;;1.95;1.85;;;-1.30;99.90;;;;;;5079073;28;20243;-62
2022/01/13 06:31:38;;;;;;;2.08;1.98;;;-1.30;99.90;;;;;;5071037;28;20227;-61
2022/01/13 06:34:05;;;;;;;1.90;1.80;;;-1.30;99.90;;;;;;5070330;28;20314;-63
2022/01/13 06:36:32;;;;;;;1.83;1.73;;;-1.20;99.90;;;;;;5070235;28;20295;-63
2022/01/13 06:38:59;;;;;;;1.58;1.50;;;-1.20;99.90;;;;;;5071138;28;20322;-59
2022/01/13 06:41:26;;;;;;;1.80;1.70;;;-1.10;99.90;;;;;;5071082;28;20292;-63
2022/01/13 06:43:53;;;;;;;1.90;1.80;;;-1.10;99.90;;;;;;5071432;28;20315;-62
2022/01/13 06:46:20;;;;;;;2.40;2.30;;;-1.00;99.90;;;;;;5071356;28;20203;-64
2022/01/13 06:48:48;;;;;;;2.20;2.03;;;-0.90;99.90;;;;;;5059609;28;20256;-63
2022/01/13 06:51:15;;;;;;;1.92;1.83;;;-0.90;99.90;;;;;;5054030;28;20267;-63
2022/01/13 06:53:42;;;;;;;1.67;1.58;;;-0.80;99.90;;;;;;5054775;28;20299;-63
2022/01/13 06:56:11;;;;;;;2.00;1.90;;;-0.80;99.90;;;;;;5060486;28;20203;-62
2022/01/13 06:58:38;;;;;;;2.10;2.00;;;-0.80;99.90;;;;;;5074662;28;20234;-62
2022/01/13 07:01:05;;;;;;;2.05;1.95;;;-0.80;99.90;;;;;;5069536;28;20215;-61
2022/01/13 07:03:32;;;;;;;2.30;2.10;;;-0.80;99.90;;;;;;5074257;28;20309;-62
2022/01/13 07:06:00;;;;;;;2.30;2.20;;;-0.80;99.90;;;;;;5074305;28;20302;-63
2022/01/13 07:08:27;;;;;;;2.25;2.15;;;-0.80;99.90;;;;;;5074490;28;20740;-64
2022/01/13 07:10:54;;;;;;;2.10;2.00;;;-0.80;99.90;;;;;;5074754;28;20294;-63
2022/01/13 07:13:21;;;;;;;2.63;2.53;;;-0.80;99.90;;;;;;5074494;28;20257;-64
2022/01/13 07:15:48;;;;;;;2.33;2.23;;;-0.90;99.90;;;;;;5074127;28;20203;-63
2022/01/13 07:18:15;;;;;;;2.70;2.60;;;-0.90;99.90;;;;;;5061147;28;20291;-64
2022/01/13 07:20:44;;;;;;;2.25;2.15;;;-0.90;99.90;;;;;;5073062;28;20294;-64
2022/01/13 07:23:13;;;;;;;2.30;2.20;;;-0.90;99.90;;;;;;5074227;28;20724;-62
2022/01/13 07:25:39;;;;;;;2.40;2.30;;;-0.90;99.90;;;;;;5076397;28;20574;-62
2022/01/13 07:28:06;;;;;;;2.40;2.27;;;-0.90;99.90;;;;;;5075581;28;20203;-62
2022/01/13 07:30:33;;;;;;;3.22;2.15;;;-0.90;99.90;;;;;;5076026;28;20329;-63
2022/01/13 07:33:00;;;;;;;2.25;2.15;;;-0.90;99.90;;;;;;5076923;28;20282;-63
2022/01/13 07:35:27;;;;;;;2.10;2.00;;;-0.90;99.90;;;;;;5075596;28;20298;-61
2022/01/13 07:37:54;;;;;;;2.20;2.10;;;-0.90;99.90;;;;;;5074442;28;20202;-62
2022/01/13 07:40:23;;;;;;;2.25;2.15;;;-0.90;99.90;;;;;;5074368;28;20217;-62
2022/01/13 07:42:50;;;;;;;2.33;2.22;;;-0.80;99.90;;;;;;5073934;28;20764;-62
2022/01/13 07:45:19;;;;;;;2.83;2.63;;;-0.80;99.90;;;;;;5071881;28;20223;-62
2022/01/13 07:47:46;;;;;;;2.63;2.53;;;-0.80;99.90;;;;;;5073964;28;20207;-62
2022/01/13 07:50:15;;;;;;;2.60;2.50;;;-0.80;99.90;;;;;;5073916;28;20294;-62
2022/01/13 07:52:42;;;;;;;2.42;2.22;;;-0.70;99.90;;;;;;5061104;28;20250;-63
2022/01/13 07:55:10;;;;;;;2.60;2.50;;;-0.70;99.90;;;;;;5079425;28;20222;-62
2022/01/13 07:57:39;;;;;;;2.65;2.45;;;-0.60;99.90;;;;;;5073952;28;20571;-62
2022/01/13 08:00:09;;;;;;;2.72;2.53;;;-0.60;99.90;;;;;;5073479;28;20195;-67
2022/01/13 08:02:36;;;;;;;2.40;2.30;;;-0.50;99.90;;;;;;5066144;28;20220;-63
2022/01/13 08:05:04;;;;;;;2.63;2.53;;;-0.60;99.90;;;;;;5062442;28;20243;-62
2022/01/13 08:07:31;;;;;;;2.60;2.50;;;-0.50;99.90;;;;;;5073102;28;20302;-62
2022/01/13 08:09:58;;;;;;;2.92;2.78;;;-0.50;99.90;;;;;;5072329;28;20246;-63
2022/01/13 08:12:25;;;;;;;2.83;2.72;;;-0.40;99.90;;;;;;5069543;28;20652;-62
2022/01/13 08:14:53;;;;;;;2.50;2.40;;;-0.40;99.90;;;;;;5073032;28;20566;-61
2022/01/13 08:19:45;;;;;;;2.47;2.37;;;-0.40;99.90;;;;;;5072734;28;20620;-64
2022/01/13 08:20:08;;;;;;;2.55;2.45;;;-0.30;99.90;;;;;;5052785;28;20261;-62
2022/01/13 08:22:35;;;;;;;2.42;2.33;;;-0.20;99.90;;;;;;5066167;28;20251;-64
2022/01/13 08:25:03;;;;;;;2.67;2.55;;;-0.20;99.90;;;;;;5068455;28;20219;-63
2022/01/13 08:27:30;;;;;;;2.83;2.72;;;-0.20;99.90;;;;;;5072637;28;20293;-62
2022/01/13 08:29:58;;;;;;;2.50;2.40;;;-0.20;99.90;;;;;;5071641;28;20288;-64
2022/01/13 08:32:25;;;;;;;2.30;2.20;;;-0.10;99.90;;;;;;5068636;28;20630;-61
2022/01/13 08:34:52;;;;;;;2.13;2.03;;;-0.10;99.90;;;;;;5069669;28;20235;-61
2022/01/13 08:37:19;;;;;;;2.35;2.25;;;0.00;99.90;;;;;;5067879;28;20237;-62
2022/01/13 08:39:46;;;;;;;2.23;2.13;;;0.20;99.90;;;;;;5060872;28;20242;-63
2022/01/13 08:42:13;;;;;;;2.08;1.98;;;0.20;99.90;;;;;;5067387;28;20463;-63
2022/01/13 08:44:41;;;;;;;1.92;1.83;;;0.20;99.90;;;;;;5072334;28;20223;-62
2022/01/13 08:47:10;;;;;;;2.13;2.03;;;0.30;99.90;;;;;;5069466;28;20298;-63
2022/01/13 08:49:37;;;;;;;2.13;2.03;;;0.40;99.90;;;;;;5073023;28;20206;-61
2022/01/13 08:52:05;;;;;;;2.20;2.10;;;0.50;99.90;;;;;;5067787;28;20203;-62
2022/01/13 08:54:32;;;;;;;2.28;2.17;;;0.50;99.90;;;;;;5071935;28;20344;-62
2022/01/13 08:56:59;;;;;;;2.28;2.17;;;0.60;99.90;;;;;;5071787;28;20290;-61
2022/01/13 08:59:26;;;;;;;2.17;2.07;;;0.60;99.90;;;;;;5071959;28;20313;-62
2022/01/13 09:01:54;;;;;;;2.33;2.23;;;0.90;99.90;;;;;;5071862;28;20306;-62
2022/01/13 09:04:22;;;;;;;2.97;2.80;;;1.10;99.90;;;;;;5069509;28;20223;-63
2022/01/13 09:06:49;;;;;;;2.93;2.73;;;1.30;99.90;;;;;;5071963;28;20294;-63
2022/01/13 09:09:16;;;;;;;3.10;2.90;;;1.30;99.90;;;;;;5082179;28;20688;-62
2022/01/13 09:11:43;;;;;;;3.00;2.80;;;1.40;99.90;;;;;;5081683;28;20297;-63
2022/01/13 09:14:10;;;;;;;2.90;2.80;;;1.60;99.90;;;;;;5078924;28;20299;-62
2022/01/13 09:16:43;;;;;;;2.50;2.40;;;1.70;99.90;;;;;;5081607;28;20199;-62
2022/01/13 09:19:11;;;;;;;2.50;2.40;;;1.80;99.90;;;;;;5069432;28;20593;-63
2022/01/13 09:21:41;;;;;;;2.40;2.30;;;1.80;99.90;;;;;;5069620;28;20290;-63
2022/01/13 09:24:10;;;;;;;3.10;2.90;;;1.70;99.90;;;;;;5071113;28;20233;-63
2022/01/13 09:26:37;;;;;;;3.27;3.07;;;1.70;99.90;;;;;;5068655;28;20227;-63
2022/01/13 09:29:05;;;;;;;2.95;2.75;;;1.70;99.90;;;;;;5068329;28;20742;-63
2022/01/13 09:31:32;;;;;;;2.77;2.57;;;1.80;99.90;;;;;;5071414;28;20208;-62
2022/01/13 09:34:01;;;;;;;2.30;2.20;;;1.90;99.90;;;;;;5071760;28;20223;-61
2022/01/13 09:36:28;;;;;;;2.50;2.40;;;1.90;99.90;;;;;;5073296;28;20218;-62
2022/01/13 09:38:56;;;;;;;2.40;2.30;;;1.90;99.90;;;;;;5072191;28;20294;-61
2022/01/13 09:41:25;;;;;;;2.30;2.20;;;2.10;99.90;;;;;;5069567;28;20246;-61
2022/01/13 09:43:54;;;;;;;2.50;2.40;;;2.20;99.90;;;;;;5061336;28;20223;-61
2022/01/13 09:46:22;;;;;;;2.70;2.60;;;2.20;99.90;;;;;;5062457;28;20640;-62
2022/01/13 09:48:51;;;;;;;2.40;2.30;;;2.40;99.90;;;;;;5067199;28;20207;-62
2022/01/13 09:51:18;;;;;;;2.50;2.40;;;2.40;99.90;;;;;;5059401;28;20269;-64
2022/01/13 09:53:44;;;;;;;2.47;2.37;;;2.50;99.90;;;;;;5063056;28;20219;-61
2022/01/13 09:56:13;;;;;;;2.40;2.30;;;2.60;99.90;;;;;;5068076;28;20231;-60
2022/01/13 09:58:43;;;;;;;2.40;2.30;;;2.90;99.90;;;;;;5071298;28;20222;-60
2022/01/13 10:01:10;;;;;;;2.50;2.40;;;3.00;99.90;;;;;;5074495;28;20571;-61
2022/01/13 10:03:37;;;;;;;2.30;2.20;;;3.20;99.90;;;;;;5065384;28;20314;-61
2022/01/13 10:06:10;;;;;;;2.40;2.20;;;3.40;99.90;;;;;;5068191;28;20291;-61
2022/01/13 10:08:44;;;;;;;2.17;2.08;;;3.40;99.90;;;;;;5066849;28;20203;-62
2022/01/13 10:11:31;;;;;;;2.53;2.42;;;3.50;99.90;;;;;;5060446;28;20191;-62
2022/01/13 10:14:04;;;;;;;2.50;2.40;;;3.50;99.90;;;;;;5066599;28;20348;-63
2022/01/13 10:16:30;;;;;;;2.57;2.47;;;3.40;99.90;;;;;;5068467;28;20209;-60
2022/01/13 10:18:57;;;;;;;3.00;2.80;;;3.40;99.90;;;;;;5066760;28;20195;-61
2022/01/13 10:21:24;;;;;;;2.50;2.40;;;3.40;99.90;;;;;;5064313;28;20475;-61
2022/01/13 10:24:11;;;;;;;2.70;2.60;;;3.40;99.90;;;;;;5067476;28;20362;-61
2022/01/13 10:26:41;;;;;;;2.70;2.60;;;3.40;99.90;;;;;;5069543;28;20249;-61
2022/01/13 10:29:09;;;;;;;2.45;2.35;;;3.30;99.90;;;;;;5061416;28;20745;-61
2022/01/13 10:31:48;;;;;;;2.67;2.58;;;3.20;99.90;;;;;;5063131;28;20287;-62
2022/01/13 10:34:20;;;;;;;2.63;2.53;;;3.20;99.90;;;;;;5066051;28;20323;-61
2022/01/13 10:37:05;;;;;;;2.87;2.77;;;3.20;99.90;;;;;;5060301;28;20220;-62
2022/01/13 10:39:57;;;;;;;3.60;3.40;;;3.10;99.90;;;;;;5062479;28;20273;-61
2022/01/13 10:43:07;;;;;;;3.63;3.43;;;3.10;99.90;;;;;;5063510;28;20192;-61
2022/01/13 10:45:37;;;;;;;3.42;3.22;;;3.00;99.90;;;;;;5064029;28;20241;-61
2022/01/13 10:48:07;;;;;;;3.37;3.17;;;2.90;99.90;;;;;;5061949;28;20199;-62
2022/01/13 10:50:38;;;;;;;3.60;3.40;;;2.90;99.90;;;;;;5069412;28;20275;-61
2022/01/13 10:53:08;;;;;;;3.63;3.43;;;3.00;99.90;;;;;;5061487;28;20734;-62
2022/01/13 10:55:42;;;;;;;3.57;3.37;;;2.90;99.90;;;;;;5061618;28;20652;-61
2022/01/13 10:58:12;;;;;;;3.83;3.63;;;2.90;99.90;;;;;;5061943;28;20195;-62
2022/01/13 11:00:39;;;;;;;3.77;3.57;;;2.90;99.90;;;;;;5070509;28;20620;-62
2022/01/13 11:03:10;;;;;;;3.70;3.50;;;2.90;99.90;;;;;;5069665;28;20598;-63
2022/01/13 11:05:39;;;;;;;3.87;3.67;;;2.90;99.90;;;;;;5063314;28;20231;-62
2022/01/13 11:08:08;;;;;;;4.07;3.77;;;2.80;99.90;;;;;;5070954;28;20642;-63
2022/01/13 11:10:36;;;;;;;3.72;3.53;;;2.80;99.90;;;;;;5073205;28;20287;-61
2022/01/13 11:13:05;;;;;;;3.63;3.40;;;2.70;99.90;;;;;;5069811;28;20199;-61
2022/01/13 11:15:34;;;;;;;3.60;3.40;;;2.70;99.90;;;;;;5073086;28;20580;-62
2022/01/13 11:18:02;;;;;;;3.10;3.00;;;2.70;99.90;;;;;;5070507;28;20210;-61
2022/01/13 11:20:30;;;;;;;3.45;3.25;;;2.80;99.90;;;;;;5070408;28;20204;-63
2022/01/13 11:22:58;;;;;;;3.07;2.97;;;2.90;99.90;;;;;;5072100;28;22095;-61
2022/01/13 11:25:27;;;;;;;3.58;3.38;;;3.10;99.90;;;;;;5072943;28;20572;-62
2022/01/13 11:27:55;;;;;;;3.60;3.40;;;3.00;99.90;;;;;;5072255;28;20286;-62
2022/01/13 11:30:25;;;;;;;3.80;3.60;;;3.00;99.90;;;;;;5074041;28;20298;-63
2022/01/13 11:32:53;;;;;;;3.50;3.30;;;3.10;99.90;;;;;;5070847;28;20195;-61
2022/01/13 11:35:24;;;;;;;3.53;3.33;;;3.10;99.90;;;;;;5072018;28;20290;-62
2022/01/13 11:37:52;;;;;;;3.63;3.43;;;3.10;99.90;;;;;;5071128;28;20286;-63
2022/01/13 11:40:41;;;;;;;3.53;3.33;;;3.10;99.90;;;;;;5069858;28;20601;-61
2022/01/13 11:43:22;;;;;;;3.60;3.40;;;3.20;99.90;;;;;;5067599;28;20230;-61
2022/01/13 11:45:50;;;;;;;3.77;3.57;;;3.20;99.90;;;;;;5072356;28;20195;-63
2022/01/13 11:48:21;;;;;;;3.93;3.73;;;3.30;99.90;;;;;;5069377;28;20204;-62
2022/01/13 11:50:52;;;;;;;3.80;3.60;;;3.30;99.90;;;;;;5061490;28;20253;-63
2022/01/13 11:53:25;;;;;;;3.53;3.33;;;3.40;99.90;;;;;;5056082;28;20228;-63
2022/01/13 11:55:58;;;;;;;3.70;3.50;;;3.30;99.90;;;;;;5061874;28;20208;-61
2022/01/13 11:58:30;;;;;;;3.85;3.65;;;3.30;99.90;;;;;;5064197;28;20205;-64
2022/01/13 12:01:09;;;;;;;3.40;3.20;;;3.30;99.90;;;;;;5062165;28;20674;-61
2022/01/13 12:03:40;;;;;;;3.90;3.70;;;3.40;99.90;;;;;;5067463;28;20262;-63
2022/01/13 12:06:07;;;;;;;4.00;3.70;;;3.30;99.90;;;;;;5059080;28;20246;-62
2022/01/13 12:08:44;;;;;;;3.70;3.50;;;3.40;99.90;;;;;;5067416;28;20237;-62
2022/01/13 12:11:27;;;;;;;4.17;3.97;;;3.50;99.90;;;;;;5056874;28;20242;-62
2022/01/13 12:13:54;;;;;;;4.30;4.10;;;3.40;99.90;;;;;;5059696;28;20223;-61
2022/01/13 12:16:51;;;;;;;4.03;3.83;;;3.30;99.90;;;;;;5062490;28;20246;-62
2022/01/13 12:19:29;;;;;;;3.97;3.78;;;3.20;99.90;;;;;;5059289;28;20216;-63
2022/01/13 12:22:03;;;;;;;4.10;3.90;;;3.10;99.90;;;;;;5065298;28;20219;-62
2022/01/13 12:24:56;;;;;;;4.10;3.90;;;3.10;99.90;;;;;;5073223;28;20226;-63
2022/01/13 12:27:25;;;;;;;4.10;3.90;;;3.20;99.90;;;;;;5072286;28;20586;-62
2022/01/13 12:30:06;;;;;;;4.20;4.00;;;3.30;99.90;;;;;;5073250;28;20290;-62
2022/01/13 12:32:40;;;;;;;4.40;4.10;;;3.40;99.90;;;;;;5072721;28;20329;-63
2022/01/13 12:35:11;;;;;;;3.83;3.63;;;3.40;99.90;;;;;;5073396;28;20230;-63
2022/01/13 12:37:39;;;;;;;4.13;3.90;;;3.50;99.90;;;;;;5073372;28;20199;-64
2022/01/13 12:40:20;;;;;;;3.55;3.35;;;3.50;99.90;;;;;;5073636;28;20231;-63
2022/01/13 12:42:52;;;;;;;4.43;4.20;;;3.50;99.90;;;;;;5072629;28;20237;-62
2022/01/13 12:45:32;;;;;;;3.67;3.47;;;3.50;99.90;;;;;;5067014;28;20269;-61
2022/01/13 12:48:01;;;;;;;4.10;3.90;;;3.60;99.90;;;;;;5058453;28;20214;-61
2022/01/13 12:50:33;;;;;;;3.77;3.57;;;3.60;99.90;;;;;;5062046;28;20569;-62
2022/01/13 12:53:10;;;;;;;3.43;3.23;;;3.70;99.90;;;;;;5057202;28;20674;-62
2022/01/13 12:55:39;;;;;;;3.47;3.28;;;3.70;99.90;;;;;;5057955;28;20215;-62
2022/01/13 12:58:07;;;;;;;3.90;3.70;;;3.80;99.90;;;;;;5067537;28;20199;-62
2022/01/13 13:00:34;;;;;;;3.60;3.40;;;3.80;99.90;;;;;;5066620;28;20235;-61
2022/01/13 13:03:06;;;;;;;4.03;3.83;;;4.00;99.90;;;;;;5073317;28;20641;-61
2022/01/13 13:05:48;;;;;;;3.70;3.50;;;4.00;99.90;;;;;;5060915;28;20211;-61
2022/01/13 13:08:18;;;;;;;3.90;3.70;;;3.90;99.90;;;;;;5054534;28;20580;-61
2022/01/13 13:10:49;;;;;;;3.80;3.60;;;3.80;99.90;;;;;;5056873;28;20635;-61
2022/01/13 13:13:18;;;;;;;4.17;3.97;;;3.90;99.90;;;;;;5052021;28;20260;-62
2022/01/13 13:15:56;;;;;;;4.20;4.00;;;3.90;99.90;;;;;;5057466;28;20227;-62